Main page
METAR-TAF:

METAR-TAF

Airports :

Fukuoka, Japan

Fukuoka Airport

latitude: 33-35N, longitude: 130-27E, elevation: 9 m

Current weather observation

The report was made 28 minutes ago, at 15:30 UTC
Wind 4 kt from the South/Southeast
Temperature 3°C
Humidity 75%
Pressure 1026 hPa
Visibility 10 km or more

METAR: RJFF 231530Z AUTO 15004KT 9999 NCD 03/M01 Q1026 RMK A3030

Time: 00:58 (15:58 UTC)

Forecast

The report was made 4 hours and 50 minutes ago, at 11:08 UTC
Forecast valid from 23 at 12 UTC to 24 at 18 UTC
Wind 7 kt from the South/Southeast
Visibility: 9000 m
Few clouds at a height of 4000 ft
Becoming
from 24 at 00 UTC to 24 at 03 UTC
Wind 7 kt from the Northwest
Becoming
from 24 at 09 UTC to 24 at 12 UTC
Wind 3 kt from the South/Southeast

TAF: RJFF 231108Z 2312/2418 15007KT 9000 FEW040 BECMG 2400/2403 32007KT BECMG 2409/2412 15003KT

Weather observations and forecasts of more than 4000 airports (METAR and TAF reports).

The available stations are represented by yellow and red dots on the map.

Hover mouse over dot to see the name of the station.

Then click to see weather observations and forecasts.

To change the map : click on the green buttons with a black cross to zoom in, on the green button with a dash to zoom out, or on the green arrows for adjacent maps.


METAR-TAF: